Terminal Aerodrome Forecast
Issued by NWS Omaha/Valley, NE

Home | Current Version | Previous Version | Graphics & Text | Print | Product List | Glossary On
Versions: 1 2 3 4 5 6 7 8 9 10 11 12 13 14 15 16 17 18 19 20 21 22 23 24 25 26 27 28 29 30 31 32 33 34
000
FTUS43 KOAX 252035 AAA
TAFOFK
TAF AMD
KOFK 252035Z 2521/2618 01008KT P6SM VCTS BKN110CB BKN250
     FM260400 36005KT P6SM SCT060 OVC100
     FM260600 01005KT 6SM -RA SCT040 OVC060
      TEMPO 2607/2609 4SM TSRA BKN040CB
     FM261200 03005KT P6SM BKN045=

USA.gov is the U.S. government's official web portal to all federal, state and local government web resources and services.